Time;durP1;ratioP1;P1;durP2;ratioP2;P2;SDS_P1;SDS_P2;PMS_P1;PMS_P2;Temp;Humidity;BMP_temperature;BMP_pressure;BME280_temperature;BME280_humidity;BME280_pressure;Samples;Min_cycle;Max_cycle;Signal;HPM_P1;HPM_P2
2022/06/21 00:01:38;;;;;;;;;5.50;4.00;;;;;12.28;59.99;99954.28;5096901;28;8972;-62
2022/06/21 00:04:06;;;;;;;;;5.00;4.50;;;;;12.26;60.33;99947.38;5096792;28;8814;-64
2022/06/21 00:06:34;;;;;;;;;3.75;3.75;;;;;12.26;60.49;99955.38;5097107;28;8832;-63
2022/06/21 00:09:02;;;;;;;;;4.25;3.75;;;;;12.24;60.21;99950.16;5096711;28;8846;-65
2022/06/21 00:11:30;;;;;;;;;4.50;4.50;;;;;12.20;60.02;99956.75;5096841;28;8850;-64
2022/06/21 00:13:58;;;;;;;;;3.00;1.00;;;;;12.18;60.43;99952.53;5096807;28;8848;-63
2022/06/21 00:16:25;;;;;;;;;3.00;3.00;;;;;12.14;60.39;99951.06;5097089;28;8918;-63
2022/06/21 00:18:53;;;;;;;;;3.00;3.00;;;;;12.11;59.97;99946.00;5096640;28;8972;-63
2022/06/21 00:21:21;;;;;;;;;4.00;4.00;;;;;12.09;60.02;99945.31;5097030;28;8852;-63
2022/06/21 00:23:50;;;;;;;;;3.00;2.00;;;;;12.08;60.47;99949.78;5096308;28;8834;-63
2022/06/21 00:26:17;;;;;;;;;4.00;4.00;;;;;12.04;60.63;99955.53;5096870;28;8980;-62
2022/06/21 00:28:45;;;;;;;;;3.75;3.75;;;;;12.01;60.38;99956.63;5095033;28;8861;-63
2022/06/21 00:31:13;;;;;;;;;4.50;4.50;;;;;11.97;61.12;99953.53;5096206;28;8830;-64
2022/06/21 00:33:40;;;;;;;;;3.50;3.50;;;;;11.92;61.26;99961.91;5096601;28;8843;-65
2022/06/21 00:36:08;;;;;;;;;4.00;3.25;;;;;11.88;60.65;99952.47;5096534;28;8858;-65
2022/06/21 00:38:36;;;;;;;;;4.00;4.00;;;;;11.84;60.83;99959.03;5096612;28;8914;-65
2022/06/21 00:41:04;;;;;;;;;3.50;2.50;;;;;11.79;61.23;99961.25;5096038;28;8845;-63
2022/06/21 00:43:32;;;;;;;;;5.00;5.00;;;;;11.77;61.02;99952.53;5096570;28;8822;-63
2022/06/21 00:46:01;;;;;;;;;4.00;3.50;;;;;11.78;61.11;99956.03;5096474;28;8826;-63
2022/06/21 00:48:29;;;;;;;;;4.50;4.00;;;;;11.74;61.44;99952.78;5096310;28;8880;-65
2022/06/21 00:50:57;;;;;;;;;3.00;3.00;;;;;11.68;61.46;99963.97;5095484;28;8838;-63
2022/06/21 00:53:25;;;;;;;;;3.00;3.00;;;;;11.63;61.17;99960.84;5096070;28;8894;-64
2022/06/21 00:55:53;;;;;;;;;4.00;4.00;;;;;11.57;61.43;99964.00;5095892;28;8842;-64
2022/06/21 00:58:21;;;;;;;;;4.00;3.25;;;;;11.52;61.54;99957.34;5096340;28;8857;-63
2022/06/21 01:00:49;;;;;;;;;4.00;4.00;;;;;11.48;61.35;99962.09;5095300;28;8866;-64
2022/06/21 01:03:17;;;;;;;;;3.75;3.25;;;;;11.43;61.73;99961.63;5095486;28;8846;-63
2022/06/21 01:05:45;;;;;;;;;4.25;3.50;;;;;11.37;62.13;99948.78;5096302;28;8817;-64
2022/06/21 01:08:12;;;;;;;;;3.50;3.50;;;;;11.36;62.11;99947.09;5094558;28;8844;-64
2022/06/21 01:10:41;;;;;;;;;6.00;3.25;;;;;11.35;61.77;99945.41;5095212;28;8964;-63
2022/06/21 01:13:08;;;;;;;;;4.00;4.00;;;;;11.32;61.91;99951.00;5095641;28;8849;-63
2022/06/21 01:15:36;;;;;;;;;4.00;4.00;;;;;11.25;62.20;99944.50;5094965;28;8853;-63
2022/06/21 01:18:04;;;;;;;;;3.00;3.00;;;;;11.21;61.92;99937.69;5095731;28;8849;-63
2022/06/21 01:20:32;;;;;;;;;4.00;4.00;;;;;11.19;62.31;99941.47;5095150;28;8956;-65
2022/06/21 01:23:00;;;;;;;;;4.00;3.50;;;;;11.16;62.36;99941.72;5095362;28;8993;-64
2022/06/21 01:25:28;;;;;;;;;5.00;4.00;;;;;11.15;62.61;99935.53;5095019;28;8814;-63
2022/06/21 01:27:56;;;;;;;;;6.00;5.00;;;;;11.15;62.67;99938.19;5095139;28;8961;-62
2022/06/21 01:30:23;;;;;;;;;4.50;4.50;;;;;11.14;62.07;99939.19;5095442;28;8861;-64
2022/06/21 01:32:51;;;;;;;;;3.00;2.50;;;;;11.13;62.31;99940.16;5094975;28;8830;-63
2022/06/21 01:35:19;;;;;;;;;3.25;3.25;;;;;11.12;63.08;99942.94;5095504;28;8857;-63
2022/06/21 01:37:47;;;;;;;;;5.50;5.00;;;;;11.08;62.73;99936.19;5095410;28;8822;-64
2022/06/21 01:40:15;;;;;;;;;4.00;3.00;;;;;11.06;62.81;99930.13;5095746;28;8829;-62
2022/06/21 01:42:43;;;;;;;;;4.00;4.00;;;;;11.04;62.74;99948.91;5095427;28;8876;-63
2022/06/21 01:45:10;;;;;;;;;6.50;6.00;;;;;11.04;62.77;99940.91;5095141;28;8834;-63
2022/06/21 01:47:38;;;;;;;;;4.00;3.00;;;;;11.01;62.74;99946.47;5095274;28;8837;-62
2022/06/21 01:50:06;;;;;;;;;6.50;6.00;;;;;10.98;62.95;99941.41;5095434;28;8880;-62
2022/06/21 01:52:34;;;;;;;;;6.00;6.00;;;;;10.93;63.14;99943.59;5095134;28;8968;-64
2022/06/21 01:55:02;;;;;;;;;4.00;4.00;;;;;10.90;63.40;99938.50;5095450;28;8861;-63
2022/06/21 01:57:30;;;;;;;;;4.50;3.75;;;;;10.91;62.84;99931.38;5095330;28;8972;-64
2022/06/21 02:00:03;;;;;;;;;6.50;4.00;;;;;10.92;63.35;99933.91;5095200;28;8833;-64
2022/06/21 02:02:31;;;;;;;;;5.50;5.50;;;;;10.94;63.41;99934.63;5095090;28;8834;-63
2022/06/21 02:04:59;;;;;;;;;7.00;5.00;;;;;10.96;63.28;99938.03;5095238;28;8918;-64
2022/06/21 02:07:27;;;;;;;;;3.00;2.00;;;;;10.95;63.29;99931.00;5095343;28;8848;-63
2022/06/21 02:09:55;;;;;;;;;5.00;5.00;;;;;10.94;63.40;99931.13;5095489;28;8844;-65
2022/06/21 02:12:23;;;;;;;;;4.00;3.50;;;;;10.90;63.06;99925.19;5095098;28;8968;-64
2022/06/21 02:14:51;;;;;;;;;2.00;1.00;;;;;10.87;63.16;99928.13;5094927;28;8834;-65
2022/06/21 02:17:19;;;;;;;;;3.00;3.00;;;;;10.85;63.88;99927.38;5095153;28;8842;-64
2022/06/21 02:19:47;;;;;;;;;4.00;3.75;;;;;10.86;63.22;99920.25;5098988;28;8846;-64
2022/06/21 02:22:14;;;;;;;;;1.00;0.50;;;;;10.85;63.44;99921.22;5098438;28;9507;-65
2022/06/21 02:24:42;;;;;;;;;3.00;3.00;;;;;10.83;63.27;99913.34;5099040;28;8934;-62
2022/06/21 02:27:10;;;;;;;;;4.00;4.00;;;;;10.81;63.58;99909.97;5099190;28;8849;-63
2022/06/21 02:29:38;;;;;;;;;4.50;3.50;;;;;10.78;63.40;99917.34;5098540;28;8883;-63
2022/06/21 02:32:05;;;;;;;;;3.75;3.75;;;;;10.78;63.38;99920.00;5098972;28;8856;-63
2022/06/21 02:34:33;;;;;;;;;3.00;3.00;;;;;10.75;63.25;99926.44;5098549;28;8838;-62
2022/06/21 02:37:01;;;;;;;;;4.25;3.25;;;;;10.75;63.85;99933.56;5098985;28;8838;-63
2022/06/21 02:39:29;;;;;;;;;6.50;6.00;;;;;10.70;63.80;99923.28;5098470;28;8830;-62
2022/06/21 02:41:57;;;;;;;;;5.50;5.50;;;;;10.65;63.72;99922.81;5098188;28;8862;-65
2022/06/21 02:44:24;;;;;;;;;6.00;6.00;;;;;10.59;63.48;99917.97;5098394;28;8895;-63
2022/06/21 02:46:52;;;;;;;;;6.75;6.75;;;;;10.54;64.01;99922.81;5098456;28;8810;-64
2022/06/21 02:49:20;;;;;;;;;7.00;6.00;;;;;10.51;64.08;99925.75;5098325;28;8865;-63
2022/06/21 02:51:48;;;;;;;;;7.00;7.00;;;;;10.49;64.30;99918.84;5098278;28;9512;-62
2022/06/21 02:54:16;;;;;;;;;5.50;5.50;;;;;10.46;63.63;99911.94;5098047;28;8880;-63
2022/06/21 02:56:44;;;;;;;;;6.75;5.00;;;;;10.41;64.10;99918.59;5098586;28;8834;-62
2022/06/21 02:59:12;;;;;;;;;4.50;3.75;;;;;10.35;64.21;99921.75;5097927;28;8830;-62
2022/06/21 03:01:39;;;;;;;;;4.67;4.00;;;;;10.30;64.08;99922.09;5098267;28;8851;-63
2022/06/21 03:04:07;;;;;;;;;4.00;3.00;;;;;10.25;64.37;99934.91;5098367;28;8879;-65
2022/06/21 03:06:35;;;;;;;;;5.25;5.25;;;;;10.19;64.45;99924.78;5097896;28;8834;-62
2022/06/21 03:09:03;;;;;;;;;6.00;4.00;;;;;10.19;64.75;99935.44;5097806;28;8829;-64
2022/06/21 03:11:31;;;;;;;;;5.00;3.50;;;;;10.19;64.72;99919.47;5097929;28;9049;-64
2022/06/21 03:13:58;;;;;;;;;3.75;3.75;;;;;10.20;64.33;99925.59;5098008;28;8846;-63
2022/06/21 03:16:27;;;;;;;;;4.00;4.00;;;;;10.18;64.59;99923.06;5097640;28;8927;-62
2022/06/21 03:18:55;;;;;;;;;4.00;3.25;;;;;10.18;64.46;99922.22;5097754;28;9525;-64
2022/06/21 03:21:23;;;;;;;;;5.00;4.00;;;;;10.17;64.44;99921.38;5097712;28;8829;-62
2022/06/21 03:23:51;;;;;;;;;2.00;2.00;;;;;10.17;64.34;99926.69;5098017;28;8853;-63
2022/06/21 03:26:18;;;;;;;;;3.25;3.00;;;;;10.17;64.45;99921.38;5097450;28;8918;-62
2022/06/21 03:28:46;;;;;;;;;3.75;3.00;;;;;10.19;64.48;99914.13;5095152;28;9496;-64
2022/06/21 03:31:14;;;;;;;;;3.50;3.50;;;;;10.18;64.16;99912.41;5094807;28;8955;-63
2022/06/21 03:33:42;;;;;;;;;5.50;4.00;;;;;10.20;64.29;99912.31;5095132;28;8841;-63
2022/06/21 03:36:10;;;;;;;;;4.75;4.75;;;;;10.20;64.38;99899.00;5094936;28;8846;-62
2022/06/21 03:38:38;;;;;;;;;7.00;6.50;;;;;10.24;64.73;99895.97;5096624;28;8980;-63
2022/06/21 03:43:51;;;;;;;;;3.50;3.50;;;;;10.44;64.11;99900.56;5097560;28;8842;-63
2022/06/21 03:46:18;;;;;;;;;6.00;5.00;;;;;10.52;64.11;99892.81;5097211;28;8937;-63
2022/06/21 03:48:47;;;;;;;;;6.00;5.50;;;;;10.62;63.91;99892.94;5096429;28;8833;-62
2022/06/21 03:51:14;;;;;;;;;5.00;4.50;;;;;10.64;63.79;99893.66;5097016;28;8954;-63
2022/06/21 03:53:42;;;;;;;;;6.75;6.00;;;;;10.67;63.87;99893.38;5097129;28;8856;-63
2022/06/21 03:56:10;;;;;;;;;5.00;5.00;;;;;10.69;63.59;99889.63;5096977;28;8864;-65
2022/06/21 03:58:38;;;;;;;;;7.00;6.50;;;;;10.73;63.45;99891.09;5097156;28;8847;-64
2022/06/21 04:01:06;;;;;;;;;6.25;6.25;;;;;10.76;63.39;99880.19;5096024;28;8857;-63
2022/06/21 04:03:33;;;;;;;;;4.00;4.00;;;;;10.77;63.70;99868.56;5095248;28;8829;-62
2022/06/21 04:06:01;;;;;;;;;4.00;4.00;;;;;10.83;63.56;99868.06;5096415;28;8845;-63
2022/06/21 04:08:29;;;;;;;;;7.00;7.00;;;;;10.91;63.60;99870.94;5096015;28;8981;-63
2022/06/21 04:10:57;;;;;;;;;6.75;6.00;;;;;11.00;63.16;99874.69;5095523;28;8842;-64
2022/06/21 04:13:25;;;;;;;;;6.00;6.00;;;;;10.98;62.96;99879.25;5096381;28;8844;-65
2022/06/21 04:15:52;;;;;;;;;9.25;9.00;;;;;10.91;63.89;99873.59;5095970;28;8992;-62
2022/06/21 04:18:20;;;;;;;;;6.00;6.00;;;;;10.84;63.63;99875.06;5095695;28;8834;-64
2022/06/21 04:20:48;;;;;;;;;4.00;4.00;;;;;10.79;63.78;99868.44;5095916;28;8838;-62
2022/06/21 04:23:16;;;;;;;;;5.50;4.00;;;;;10.79;63.90;99877.28;5096524;28;8860;-64
2022/06/21 04:25:44;;;;;;;;;7.00;6.67;;;;;10.82;63.63;99892.16;5096402;28;8981;-63
2022/06/21 04:28:12;;;;;;;;;6.50;6.50;;;;;10.79;63.70;99900.41;5095850;28;9519;-65
2022/06/21 04:30:40;;;;;;;;;7.00;6.25;;;;;10.80;64.28;99900.28;5094589;28;8848;-63
2022/06/21 04:33:07;;;;;;;;;4.50;4.00;;;;;10.91;63.33;99908.22;5096460;28;8869;-62
2022/06/21 04:35:35;;;;;;;;;6.50;5.00;;;;;10.99;63.64;99916.44;5095975;28;8838;-64
2022/06/21 04:38:04;;;;;;;;;9.75;9.25;;;;;11.14;63.19;99925.84;5095820;28;8956;-63
2022/06/21 04:40:32;;;;;;;;;15.25;15.25;;;;;11.28;62.82;99928.22;5096438;28;8874;-64
2022/06/21 04:42:59;;;;;;;;;12.75;11.75;;;;;11.37;62.92;99923.97;5095250;28;9473;-64
2022/06/21 04:45:27;;;;;;;;;17.75;13.75;;;;;11.46;62.52;99926.69;5096298;28;8842;-63
2022/06/21 04:47:55;;;;;;;;;20.75;19.50;;;;;11.53;62.45;99922.53;5096056;28;8991;-62
2022/06/21 04:50:23;;;;;;;;;11.25;10.00;;;;;11.59;62.04;99908.72;5095834;28;8841;-63
2022/06/21 04:52:51;;;;;;;;;17.75;16.25;;;;;11.74;62.04;99904.75;5095864;28;8849;-63
2022/06/21 04:55:18;;;;;;;;;22.75;21.00;;;;;11.97;61.87;99910.81;5096173;28;8838;-63
2022/06/21 04:57:46;;;;;;;;;20.25;17.75;;;;;12.10;61.74;99922.97;5095772;28;8860;-63
2022/06/21 05:00:14;;;;;;;;;20.00;18.75;;;;;12.17;61.30;99930.31;5095277;28;8838;-63
2022/06/21 05:02:42;;;;;;;;;28.00;26.25;;;;;12.23;61.49;99928.94;5096038;28;8834;-64
2022/06/21 05:05:10;;;;;;;;;18.00;17.50;;;;;12.29;61.08;99904.38;5094204;28;8841;-63
2022/06/21 05:07:38;;;;;;;;;16.50;15.00;;;;;12.43;60.92;99907.53;5094414;28;8849;-63
2022/06/21 05:10:06;;;;;;;;;14.50;12.75;;;;;12.53;60.62;99902.25;5095408;28;8826;-63
2022/06/21 05:12:34;;;;;;;;;15.00;15.00;;;;;12.66;61.00;99892.13;5095481;28;8842;-63
2022/06/21 05:15:02;;;;;;;;;12.25;10.50;;;;;12.82;60.15;99882.63;5095538;28;8838;-62
2022/06/21 05:17:30;;;;;;;;;9.25;9.25;;;;;13.03;60.61;99879.88;5095271;28;8857;-62
2022/06/21 05:19:58;;;;;;;;;8.00;8.00;;;;;13.22;59.47;99875.38;5095025;28;8849;-63
2022/06/21 05:22:28;;;;;;;;;8.75;6.75;;;;;13.40;59.27;99865.69;5094912;28;8830;-65
2022/06/21 05:24:56;;;;;;;;;8.50;7.00;;;;;13.51;59.24;99868.19;5095005;28;8961;-63
2022/06/21 05:27:24;;;;;;;;;8.00;7.25;;;;;13.59;58.78;99880.88;5094632;28;8858;-63
2022/06/21 05:29:52;;;;;;;;;7.00;6.00;;;;;13.67;59.39;99884.50;5094159;28;8842;-63
2022/06/21 05:32:19;;;;;;;;;5.00;5.00;;;;;13.81;59.44;99880.56;5093457;28;8976;-63
2022/06/21 05:34:48;;;;;;;;;6.00;6.00;;;;;13.90;58.76;99875.16;5093987;28;8864;-65
2022/06/21 05:37:15;;;;;;;;;6.75;6.75;;;;;14.04;59.18;99871.19;5093762;28;8955;-63
2022/06/21 05:39:43;;;;;;;;;8.50;7.00;;;;;14.15;58.65;99879.03;5092853;28;8866;-63
2022/06/21 05:42:11;;;;;;;;;5.75;5.75;;;;;14.27;58.52;99876.06;5093789;28;8968;-63
2022/06/21 05:44:39;;;;;;;;;6.50;6.00;;;;;14.39;58.40;99860.66;5093518;28;8960;-63
2022/06/21 05:47:07;;;;;;;;;7.00;7.00;;;;;14.55;57.76;99872.44;5092085;28;8826;-63
2022/06/21 05:49:35;;;;;;;;;8.50;7.00;;;;;14.70;57.83;99864.72;5093267;28;9243;-62
2022/06/21 05:52:02;;;;;;;;;7.25;5.25;;;;;14.82;57.41;99858.16;5090905;28;8861;-62
2022/06/21 05:54:30;;;;;;;;;9.00;9.00;;;;;14.94;57.74;99851.59;5094224;28;8926;-62
2022/06/21 05:56:58;;;;;;;;;8.50;7.00;;;;;15.06;57.07;99847.69;5095872;28;8911;-64
2022/06/21 05:59:26;;;;;;;;;8.75;7.50;;;;;15.19;57.42;99846.34;5095158;28;8838;-63
2022/06/21 06:01:54;;;;;;;;;9.00;7.00;;;;;15.34;56.80;99846.66;5095656;28;8984;-63
2022/06/21 06:04:22;;;;;;;;;7.00;7.00;;;;;15.45;56.84;99841.88;5093622;28;8829;-62
2022/06/21 06:06:50;;;;;;;;;8.50;8.25;;;;;15.59;57.06;99835.97;5092910;28;8826;-63
2022/06/21 06:09:19;;;;;;;;;5.00;5.00;;;;;15.73;56.77;99846.16;5092295;28;8833;-63
2022/06/21 06:12:02;;;;;;;;;6.75;6.75;;;;;15.83;57.01;99846.03;5092637;28;8846;-63
2022/06/21 06:14:29;;;;;;;;;7.00;7.00;;;;;15.91;56.26;99848.78;5094232;28;8842;-64
2022/06/21 06:16:57;;;;;;;;;8.50;7.50;;;;;16.01;56.51;99855.72;5093342;28;8870;-64
2022/06/21 06:19:25;;;;;;;;;7.00;6.50;;;;;16.14;56.49;99855.31;5093785;28;9492;-63
2022/06/21 06:21:53;;;;;;;;;6.00;5.00;;;;;16.26;56.03;99855.69;5093478;28;9489;-63
2022/06/21 06:24:21;;;;;;;;;7.50;7.00;;;;;16.38;56.03;99852.78;5094365;28;8833;-63
2022/06/21 06:26:49;;;;;;;;;5.50;5.50;;;;;16.47;56.26;99848.13;5094844;28;8850;-65
2022/06/21 06:29:17;;;;;;;;;9.25;7.00;;;;;16.59;55.72;99857.59;5095261;28;8852;-64
2022/06/21 06:31:45;;;;;;;;;8.25;6.75;;;;;16.71;55.65;99860.81;5095977;28;8961;-63
2022/06/21 06:34:13;;;;;;;;;5.00;4.00;;;;;16.83;55.30;99865.72;5096104;28;8895;-64
2022/06/21 06:36:41;;;;;;;;;4.50;3.25;;;;;16.95;55.41;99869.78;5095760;28;8975;-64
2022/06/21 06:39:08;;;;;;;;;6.25;5.50;;;;;17.07;55.16;99870.31;5095814;28;9566;-63
2022/06/21 06:41:36;;;;;;;;;7.00;7.00;;;;;17.15;55.05;99867.69;5095446;28;8862;-63
2022/06/21 06:44:04;;;;;;;;;9.00;6.20;;;;;17.28;54.65;99865.31;5095346;28;8851;-63
2022/06/21 06:46:32;;;;;;;;;5.50;5.50;;;;;17.36;55.23;99866.22;5093793;28;8834;-63
2022/06/21 06:49:07;;;;;;;;;2.60;2.60;;;;;17.42;54.59;99865.56;5093364;28;8907;-64
2022/06/21 06:51:34;;;;;;;;;6.00;6.00;;;;;17.48;54.57;99878.31;5093296;28;8837;-63
2022/06/21 06:54:02;;;;;;;;;6.60;5.60;;;;;17.59;54.89;99879.84;5094981;28;8830;-63
2022/06/21 06:56:30;;;;;;;;;6.00;5.60;;;;;17.69;54.59;99875.97;5093390;28;8834;-64
2022/06/21 06:58:58;;;;;;;;;6.00;6.00;;;;;17.75;54.14;99880.69;5092966;28;8837;-63
2022/06/21 07:01:31;;;;;;;;;7.00;6.80;;;;;17.84;54.17;99879.69;5094466;28;8837;-63
2022/06/21 07:03:59;;;;;;;;;8.60;8.60;;;;;17.96;54.18;99897.19;5094347;28;9515;-63
2022/06/21 07:06:27;;;;;;;;;6.00;4.00;;;;;18.10;53.97;99892.97;5092811;28;8833;-65
2022/06/21 07:08:55;;;;;;;;;3.80;3.80;;;;;18.21;54.01;99890.75;5094521;28;8826;-63
2022/06/21 07:11:23;;;;;;;;;6.00;5.60;;;;;18.28;53.89;99889.03;5093090;28;8862;-64
2022/06/21 07:13:56;;;;;;;;;6.00;5.20;;;;;18.40;53.29;99901.19;5093363;28;8845;-64
2022/06/21 07:16:26;;;;;;;;;4.00;3.40;;;;;18.46;53.24;99905.06;5092937;28;8846;-63
2022/06/21 07:18:54;;;;;;;;;7.40;6.00;;;;;18.49;52.81;99902.00;5092383;28;8845;-63
2022/06/21 07:21:22;;;;;;;;;4.00;4.00;;;;;18.52;53.26;99891.69;5093849;28;8980;-63
2022/06/21 07:23:52;;;;;;;;;4.00;4.00;;;;;18.61;53.09;99903.31;5093266;28;8980;-63
2022/06/21 07:26:20;;;;;;;;;6.00;6.00;;;;;18.72;53.12;99902.94;5095106;28;8976;-64
2022/06/21 07:28:47;;;;;;;;;6.00;4.00;;;;;18.83;53.10;99900.69;5094341;28;8842;-63
2022/06/21 07:31:16;;;;;;;;;5.80;5.00;;;;;18.90;53.09;99896.28;5095820;28;8867;-64
2022/06/21 07:33:44;;;;;;;;;4.20;4.00;;;;;18.98;52.54;99890.81;5094401;28;9339;-63
2022/06/21 07:36:18;;;;;;;;;5.60;3.80;;;;;19.05;52.43;99888.28;5093218;28;8826;-64
2022/06/21 07:38:47;;;;;;;;;2.60;2.60;;;;;19.13;52.68;99888.25;5093423;28;8849;-63
2022/06/21 07:41:14;;;;;;;;;4.00;4.00;;;;;19.17;52.50;99886.84;5094893;28;8846;-64
2022/06/21 07:43:42;;;;;;;;;1.40;1.40;;;;;19.18;52.73;99883.16;5094324;28;8830;-63
2022/06/21 07:46:10;;;;;;;;;1.20;1.20;;;;;19.21;52.19;99891.75;5094311;28;8834;-64
2022/06/21 07:48:38;;;;;;;;;3.20;3.20;;;;;19.27;51.86;99885.63;5093349;28;8833;-63
2022/06/21 07:51:06;;;;;;;;;3.40;3.20;;;;;19.31;52.06;99878.03;5093663;28;8845;-64
2022/06/21 07:53:34;;;;;;;;;2.00;2.00;;;;;19.38;52.02;99879.84;5093546;28;8837;-64
2022/06/21 07:56:02;;;;;;;;;1.20;1.20;;;;;19.43;51.58;99861.22;5093827;28;8884;-63
2022/06/21 07:58:30;;;;;;;;;1.40;1.40;;;;;19.51;51.77;99855.75;5092369;28;8857;-64
2022/06/21 08:06:44;;;;;;;;;4.00;4.00;;;;;19.88;51.44;99849.53;5093556;28;8854;-64
2022/06/21 08:09:13;;;;;;;;;4.00;2.00;;;;;20.01;50.97;99845.16;5094614;28;9331;-63
2022/06/21 08:11:40;;;;;;;;;4.00;2.00;;;;;20.13;50.25;99849.16;5092983;28;8845;-64
2022/06/21 08:14:08;;;;;;;;;2.80;2.80;;;;;20.23;51.08;99841.59;5092712;28;8833;-64
2022/06/21 08:16:36;;;;;;;;;4.00;4.00;;;;;20.35;50.07;99833.84;5092358;28;8849;-64
2022/06/21 08:19:12;;;;;;;;;3.20;3.20;;;;;20.45;50.43;99843.38;5075967;28;8936;-64
2022/06/21 08:21:40;;;;;;;;;4.00;4.00;;;;;20.52;50.05;99838.88;5092647;28;9580;-63
2022/06/21 08:24:08;;;;;;;;;2.00;2.00;;;;;20.59;50.20;99837.13;5092029;28;9557;-63
2022/06/21 08:26:36;;;;;;;;;2.00;2.00;;;;;20.65;50.20;99832.81;5092286;28;8861;-63
2022/06/21 08:29:04;;;;;;;;;4.80;4.80;;;;;20.67;50.10;99834.31;5091476;28;8866;-63
2022/06/21 08:31:31;;;;;;;;;4.00;4.00;;;;;20.68;50.32;99835.97;5092581;28;8837;-64
2022/06/21 08:34:00;;;;;;;;;1.60;1.60;;;;;20.69;50.19;99834.94;5092649;28;8842;-63
2022/06/21 08:36:28;;;;;;;;;6.20;5.80;;;;;20.71;49.78;99827.47;5093441;28;9310;-63
2022/06/21 08:38:56;;;;;;;;;4.80;3.20;;;;;20.83;49.75;99826.81;5093831;28;9615;-63
2022/06/21 08:44:21;;;;;;;;;5.00;4.80;;;;;21.10;49.17;99828.00;4992090;28;8873;-64
2022/06/21 08:46:49;;;;;;;;;4.40;4.40;;;;;21.20;49.05;99825.78;5069691;28;8864;-63
2022/06/21 08:49:18;;;;;;;;;5.00;4.40;;;;;21.19;49.33;99810.56;5093542;28;8952;-64
2022/06/21 08:51:45;;;;;;;;;4.00;4.00;;;;;21.15;49.20;99801.16;5092968;28;8876;-62
2022/06/21 08:54:13;;;;;;;;;5.40;4.20;;;;;21.19;49.21;99795.16;5091266;28;8842;-64
2022/06/21 08:56:41;;;;;;;;;4.60;4.00;;;;;21.33;49.35;99801.56;5091523;28;8830;-64
2022/06/21 08:59:09;;;;;;;;;4.80;4.80;;;;;21.41;48.92;99807.66;5090647;28;8876;-63
2022/06/21 09:01:37;;;;;;;;;4.00;4.00;;;;;21.45;48.90;99805.41;5089119;28;8833;-64
2022/06/21 09:04:05;;;;;;;;;4.00;3.60;;;;;21.54;48.90;99802.38;5090386;28;8968;-64
2022/06/21 09:06:34;;;;;;;;;3.20;3.20;;;;;21.66;48.29;99800.00;5089113;28;8825;-64
2022/06/21 09:09:04;;;;;;;;;4.00;2.40;;;;;21.78;48.26;99790.31;5090132;28;8838;-63
2022/06/21 09:11:32;;;;;;;;;4.60;4.40;;;;;21.92;48.25;99789.34;5090624;28;9488;-64
2022/06/21 09:13:59;;;;;;;;;4.00;4.00;;;;;22.03;47.62;99781.50;5090148;28;8826;-64
2022/06/21 09:16:32;;;;;;;;;4.00;4.00;;;;;22.19;48.05;99777.63;5090274;28;8854;-64
2022/06/21 09:18:59;;;;;;;;;2.00;2.00;;;;;22.29;47.53;99761.81;5089402;28;8846;-63
2022/06/21 09:21:27;;;;;;;;;5.20;4.20;;;;;22.36;47.45;99765.41;5089181;28;8955;-64
2022/06/21 09:23:55;;;;;;;;;4.40;4.40;;;;;22.45;47.31;99766.94;5090749;28;8837;-63
2022/06/21 09:26:23;;;;;;;;;4.00;4.00;;;;;22.59;47.27;99776.81;5089678;28;8830;-64
2022/06/21 09:28:53;;;;;;;;;4.00;3.60;;;;;22.73;46.45;99773.97;5090496;28;8876;-63
2022/06/21 09:31:21;;;;;;;;;5.60;5.00;;;;;22.85;46.60;99771.50;5090403;28;8838;-64
2022/06/21 09:33:49;;;;;;;;;5.60;5.00;;;;;22.93;46.38;99774.03;5090672;28;8838;-64
2022/06/21 09:36:16;;;;;;;;;5.60;5.20;;;;;23.01;46.17;99782.84;5089540;28;8862;-64
2022/06/21 09:38:44;;;;;;;;;6.00;6.00;;;;;23.11;46.37;99774.28;5088106;28;8857;-63
2022/06/21 09:41:12;;;;;;;;;5.20;5.20;;;;;23.17;46.46;99768.03;5089347;28;8950;-64
2022/06/21 09:43:40;;;;;;;;;2.40;2.00;;;;;23.20;46.24;99767.63;5091330;28;8988;-64
2022/06/21 09:46:08;;;;;;;;;2.20;2.20;;;;;23.19;46.30;99765.94;5090744;28;8859;-64
2022/06/21 09:48:37;;;;;;;;;5.00;5.00;;;;;23.26;45.85;99755.94;5091389;28;8842;-64
2022/06/21 09:51:25;;;;;;;;;4.00;4.00;;;;;23.42;45.66;99752.81;5091121;28;8988;-64
2022/06/21 09:53:54;;;;;;;;;2.80;2.00;;;;;23.67;45.69;99754.69;5092311;28;9563;-64
2022/06/21 09:56:22;;;;;;;;;5.00;3.20;;;;;23.86;45.16;99745.72;5092479;28;8846;-64
2022/06/21 09:58:49;;;;;;;;;2.20;2.00;;;;;24.10;44.47;99738.75;5092096;28;8849;-64
2022/06/21 10:01:18;;;;;;;;;4.60;3.00;;;;;24.37;44.34;99740.34;5091913;28;8862;-64
2022/06/21 10:03:50;;;;;;;;;4.60;2.80;;;;;24.64;43.68;99728.34;5091900;28;8842;-64
2022/06/21 10:06:18;;;;;;;;;3.00;3.00;;;;;24.83;43.34;99711.88;5091794;28;8853;-64
2022/06/21 10:08:47;;;;;;;;;5.20;3.80;;;;;24.91;43.48;99727.13;5091794;28;9786;-64
2022/06/21 10:11:15;;;;;;;;;1.80;1.80;;;;;24.94;42.88;99715.81;5091098;28;8870;-64
2022/06/21 10:13:43;;;;;;;;;3.00;3.00;;;;;24.94;43.37;99718.53;5090901;28;8825;-64
2022/06/21 10:16:13;;;;;;;;;2.40;2.40;;;;;24.91;43.20;99711.63;5090679;28;8876;-64
2022/06/21 10:18:41;;;;;;;;;4.20;3.40;;;;;24.81;44.15;99697.63;5090024;28;8837;-64
2022/06/21 10:21:09;;;;;;;;;5.00;3.00;;;;;24.86;43.75;99699.72;5089987;28;8845;-64
2022/06/21 10:23:37;;;;;;;;;3.80;3.80;;;;;25.08;43.49;99701.00;5090005;28;9510;-65
2022/06/21 10:26:04;;;;;;;;;2.60;2.60;;;;;25.43;42.89;99694.03;5089436;28;8850;-64
2022/06/21 10:28:32;;;;;;;;;5.20;3.80;;;;;25.64;42.65;99692.59;5087984;28;8864;-64
2022/06/21 10:31:02;;;;;;;;;3.60;3.00;;;;;25.88;42.13;99689.00;5087482;28;8923;-64
2022/06/21 10:33:30;;;;;;;;;3.60;3.60;;;;;25.92;42.00;99690.25;5088768;28;8842;-64
2022/06/21 10:35:58;;;;;;;;;3.00;3.00;;;;;25.73;42.75;99688.50;5088773;28;8968;-64
2022/06/21 10:38:26;;;;;;;;;4.20;3.60;;;;;25.44;43.46;99701.16;5089029;28;8846;-64
2022/06/21 10:40:54;;;;;;;;;5.00;5.00;;;;;25.30;43.23;99702.34;5090545;28;8834;-64
2022/06/21 10:43:22;;;;;;;;;2.40;2.40;;;;;25.37;43.48;99703.13;5091024;28;9190;-64
2022/06/21 10:45:50;;;;;;;;;3.00;3.00;;;;;25.46;43.24;99690.88;5092497;28;9551;-65
2022/06/21 10:48:18;;;;;;;;;5.00;5.00;;;;;25.71;42.69;99695.25;5092371;28;8873;-64
2022/06/21 10:50:46;;;;;;;;;5.00;4.60;;;;;26.03;42.34;99697.66;5094107;28;8834;-64
2022/06/21 10:53:14;;;;;;;;;4.40;3.00;;;;;26.24;41.90;99705.41;5092473;28;8845;-65
2022/06/21 10:55:42;;;;;;;;;6.80;5.20;;;;;26.63;41.48;99715.88;5092011;28;8942;-64
2022/06/21 10:58:12;;;;;;;;;3.80;3.80;;;;;27.01;40.96;99708.19;5092436;28;8886;-64
2022/06/21 11:03:24;;;;;;;;;4.20;3.20;;;;;27.88;39.45;99716.47;5079498;28;8884;-64
2022/06/21 11:05:52;;;;;;;;;3.60;3.60;;;;;28.34;39.11;99713.66;5093926;28;8842;-64
2022/06/21 11:08:21;;;;;;;;;4.00;3.60;;;;;28.90;38.83;99705.50;5093628;28;8833;-64
2022/06/21 11:10:48;;;;;;;;;3.40;3.40;;;;;29.33;37.74;99704.94;5095309;28;8934;-64
2022/06/21 11:13:16;;;;;;;;;4.40;4.40;;;;;29.65;37.71;99695.91;5095021;28;8833;-64
2022/06/21 11:15:44;;;;;;;;;4.00;4.00;;;;;29.96;37.24;99698.03;5095627;28;8844;-65
2022/06/21 11:18:12;;;;;;;;;4.00;3.80;;;;;30.26;37.31;99689.41;5094351;28;8916;-62
2022/06/21 11:20:40;;;;;;;;;4.40;4.00;;;;;30.41;36.91;99687.69;5093277;28;9594;-63
2022/06/21 11:23:08;;;;;;;;;4.00;4.00;;;;;30.61;36.74;99685.19;5090803;28;8945;-63
2022/06/21 11:25:36;;;;;;;;;5.60;5.00;;;;;30.79;37.03;99685.69;5088184;28;8833;-63
2022/06/21 11:28:04;;;;;;;;;4.00;4.00;;;;;31.03;36.15;99680.75;5089206;28;8977;-63
2022/06/21 11:30:32;;;;;;;;;4.00;4.00;;;;;31.34;35.51;99675.25;5089561;28;9196;-63
2022/06/21 11:33:00;;;;;;;;;2.80;2.80;;;;;31.67;35.21;99676.91;5089593;28;9169;-63
2022/06/21 11:35:28;;;;;;;;;6.00;5.00;;;;;31.93;35.25;99676.81;5090560;28;8850;-63
2022/06/21 11:37:55;;;;;;;;;4.40;4.00;;;;;32.25;34.72;99674.00;5091068;28;8840;-63
2022/06/21 11:40:23;;;;;;;;;6.40;6.00;;;;;32.13;34.81;99679.72;5092613;28;8879;-63
2022/06/21 11:42:51;;;;;;;;;3.60;3.60;;;;;31.86;35.33;99675.41;5092124;28;8886;-63
2022/06/21 11:45:19;;;;;;;;;5.80;5.80;;;;;32.03;34.85;99673.31;5092098;28;8866;-63
2022/06/21 11:47:47;;;;;;;;;4.00;3.60;;;;;32.23;34.93;99665.19;5092925;28;9475;-63
2022/06/21 11:50:16;;;;;;;;;3.00;2.80;;;;;32.11;35.46;99650.75;5092046;28;8826;-63
2022/06/21 11:52:44;;;;;;;;;5.00;5.00;;;;;31.77;35.84;99671.47;5092825;28;8868;-63
2022/06/21 11:55:11;;;;;;;;;4.00;4.00;;;;;31.09;37.02;99668.66;5092080;28;8884;-63
2022/06/21 11:57:39;;;;;;;;;4.40;4.40;;;;;30.67;37.55;99664.09;5092101;28;8834;-63
2022/06/21 12:00:07;;;;;;;;;4.00;3.00;;;;;29.99;37.97;99666.47;5092584;28;8965;-63